Time;durP1;ratioP1;P1;durP2;ratioP2;P2;SDS_P1;SDS_P2;PMS_P1;PMS_P2;Temp;Humidity;BMP_temperature;BMP_pressure;BME280_temperature;BME280_humidity;BME280_pressure;Samples;Min_cycle;Max_cycle;Signal;HPM_P1;HPM_P2
2023/01/05 00:01:02;;;;;;;7.57;2.33;;;;;;;11.72;49.05;101242.41;5016339;28;20049;-66
2023/01/05 00:03:29;;;;;;;6.85;2.10;;;;;;;11.70;48.81;101229.84;5020556;28;20060;-67
2023/01/05 00:06:01;;;;;;;9.23;2.50;;;;;;;11.72;48.44;101245.13;4999503;28;20041;-66
2023/01/05 00:08:29;;;;;;;7.80;2.40;;;;;;;11.69;48.99;101250.91;5013192;28;20037;-70
2023/01/05 00:22:30;;;;;;;5.75;2.13;;;;;;;11.67;48.25;101258.38;5022357;28;20405;-67
2023/01/05 00:24:58;;;;;;;6.50;2.10;;;;;;;11.63;48.45;101265.16;5021993;28;20053;-68
2023/01/05 00:27:32;;;;;;;7.97;2.33;;;;;;;11.65;49.10;101268.59;5015629;28;20065;-69
2023/01/05 00:30:01;;;;;;;8.20;2.33;;;;;;;11.65;48.34;101252.16;5014377;28;20053;-68
2023/01/05 00:32:29;;;;;;;6.20;2.05;;;;;;;11.64;48.30;101274.22;5015582;28;20111;-68
2023/01/05 00:34:59;;;;;;;6.70;2.17;;;;;;;11.64;48.75;101264.13;5001174;28;20048;-68
2023/01/05 00:37:30;;;;;;;5.78;2.28;;;;;;;11.65;48.35;101275.97;5006576;28;20569;-69
2023/01/05 00:39:58;;;;;;;9.93;2.63;;;;;;;11.64;48.23;101271.47;5016253;28;20067;-67
2023/01/05 00:42:27;;;;;;;6.93;1.92;;;;;;;11.62;48.68;101263.41;4999679;28;20041;-67
2023/01/05 00:44:54;;;;;;;9.63;2.33;;;;;;;11.63;48.12;101277.97;5009415;28;20133;-67
2023/01/05 00:47:24;;;;;;;6.45;2.47;;;;;;;11.64;48.24;101271.47;5009498;28;20533;-68
2023/01/05 00:49:52;;;;;;;6.43;2.25;;;;;;;11.61;48.65;101258.91;5014709;28;20050;-68
2023/01/05 00:52:19;;;;;;;7.78;2.65;;;;;;;11.61;48.34;101269.88;5008713;28;20379;-68
2023/01/05 00:54:48;;;;;;;11.07;2.15;;;;;;;11.60;48.40;101261.75;5000779;28;20041;-68
2023/01/05 00:57:17;;;;;;;7.25;2.35;;;;;;;11.60;48.38;101269.97;5005887;28;20050;-68
2023/01/05 00:59:45;;;;;;;8.13;2.13;;;;;;;11.60;48.12;101264.50;5003903;28;20575;-68
2023/01/05 01:02:14;;;;;;;9.63;2.50;;;;;;;11.59;47.96;101273.72;5009666;28;20142;-67
2023/01/05 01:04:44;;;;;;;7.38;2.72;;;;;;;11.59;47.97;101287.41;5022544;28;20045;-68
2023/01/05 01:07:11;;;;;;;9.15;1.90;;;;;;;11.58;48.46;101283.81;5000780;28;20596;-68
2023/01/05 01:09:40;;;;;;;9.85;2.45;;;;;;;11.57;48.38;101287.53;5021990;28;20073;-68
2023/01/05 01:12:08;;;;;;;8.75;1.80;;;;;;;11.58;47.86;101282.94;5022314;28;20049;-67
2023/01/05 01:14:36;;;;;;;6.15;1.95;;;;;;;11.58;48.02;101274.72;5003647;28;20092;-68
2023/01/05 01:17:04;;;;;;;8.77;2.60;;;;;;;11.58;48.22;101271.97;5016023;28;20053;-68
2023/01/05 01:19:32;;;;;;;6.13;2.47;;;;;;;11.57;47.82;101276.59;5022960;28;20088;-67
2023/01/05 01:22:01;;;;;;;6.70;2.10;;;;;;;11.59;47.85;101268.22;5004406;28;20055;-68
2023/01/05 01:24:29;;;;;;;9.23;2.42;;;;;;;11.58;47.89;101277.44;5017768;28;20049;-68
2023/01/05 01:26:57;;;;;;;8.35;2.30;;;;;;;11.56;48.07;101287.66;5023325;28;20046;-67
2023/01/05 01:29:25;;;;;;;7.25;2.20;;;;;;;11.56;48.14;101285.81;5001850;28;20053;-67
2023/01/05 01:31:53;;;;;;;7.45;2.25;;;;;;;11.57;47.77;101275.72;5017594;28;20506;-68
2023/01/05 01:34:22;;;;;;;6.75;2.28;;;;;;;11.56;48.15;101274.84;5020162;28;20069;-70
2023/01/05 01:36:50;;;;;;;6.72;2.10;;;;;;;11.54;48.15;101274.13;5004178;28;20033;-69
2023/01/05 01:39:23;;;;;;;8.52;2.75;;;;;;;11.53;47.56;101293.44;5001781;28;20065;-68
2023/01/05 01:41:56;;;;;;;10.05;2.50;;;;;;;11.53;48.07;101282.47;5007729;28;20045;-69
2023/01/05 01:44:50;;;;;;;7.30;2.10;;;;;;;11.53;47.21;101286.09;5005340;28;20050;-67
2023/01/05 01:47:30;;;;;;;8.20;2.15;;;;;;;11.52;47.45;101280.72;5009159;28;20153;-68
2023/01/05 01:50:01;;;;;;;7.63;2.22;;;;;;;11.51;47.76;101292.69;5004365;28;20076;-68
2023/01/05 01:52:31;;;;;;;9.48;2.67;;;;;;;11.52;48.03;101299.91;5026988;28;20045;-69
2023/01/05 01:55:01;;;;;;;7.68;2.13;;;;;;;11.52;47.96;101295.31;5006813;28;20869;-68
2023/01/05 01:57:30;;;;;;;7.90;2.65;;;;;;;11.49;48.00;101301.03;5005814;28;20462;-69
2023/01/05 02:00:00;;;;;;;6.97;2.03;;;;;;;11.50;47.63;101305.53;5002116;28;20038;-68
2023/01/05 02:02:30;;;;;;;6.93;2.40;;;;;;;11.50;47.70;101304.66;5021291;28;20100;-66
2023/01/05 02:05:04;;;;;;;7.40;2.53;;;;;;;11.51;47.45;101309.13;5021117;28;20133;-67
2023/01/05 02:07:34;;;;;;;7.90;2.40;;;;;;;11.50;47.57;101312.88;5020270;28;20054;-66
2023/01/05 02:10:05;;;;;;;7.70;2.30;;;;;;;11.50;47.68;101313.75;5003247;28;20060;-67
2023/01/05 02:12:47;;;;;;;7.20;2.03;;;;;;;11.51;47.67;101315.47;5025073;28;20422;-67
2023/01/05 02:15:29;;;;;;;7.93;2.42;;;;;;;11.50;47.18;101313.75;5012886;28;20042;-68
2023/01/05 02:18:11;;;;;;;7.00;2.45;;;;;;;11.47;47.74;101311.25;5006341;28;20083;-67
2023/01/05 02:20:59;;;;;;;7.90;2.33;;;;;;;11.48;47.30;101306.63;5011319;28;20087;-67
2023/01/05 02:23:54;;;;;;;9.13;2.08;;;;;;;11.48;47.62;101318.47;4999208;28;20467;-68
2023/01/05 02:26:57;;;;;;;6.45;2.05;;;;;;;11.47;47.04;101315.88;5004638;28;20050;-68
2023/01/05 02:30:09;;;;;;;7.82;2.20;;;;;;;11.44;47.49;101314.25;5005971;28;20037;-68
2023/01/05 02:32:47;;;;;;;6.30;2.30;;;;;;;11.47;47.05;101326.84;5018805;28;20042;-68
2023/01/05 02:35:25;;;;;;;6.05;2.00;;;;;;;11.47;47.19;101316.72;5007329;28;20047;-68
2023/01/05 02:38:01;;;;;;;7.18;2.20;;;;;;;11.46;47.54;101323.25;5024313;28;20052;-67
2023/01/05 02:40:35;;;;;;;8.98;2.38;;;;;;;11.46;47.65;101328.72;5019855;28;20415;-68
2023/01/05 02:43:05;;;;;;;9.10;2.28;;;;;;;11.45;47.25;101324.22;5005815;28;20490;-68
2023/01/05 02:45:33;;;;;;;7.97;2.20;;;;;;;11.44;47.55;101330.72;4999121;28;20038;-67
2023/01/05 02:48:03;;;;;;;8.50;2.40;;;;;;;11.45;47.47;101329.72;5018353;28;20042;-68
2023/01/05 02:50:38;;;;;;;7.38;2.30;;;;;;;11.45;47.41;101332.47;5018332;28;20065;-67
2023/01/05 02:53:16;;;;;;;9.82;2.83;;;;;;;11.44;47.35;101327.97;5003845;28;20041;-67
2023/01/05 02:55:49;;;;;;;6.85;2.65;;;;;;;11.43;47.21;101334.44;5018705;28;20053;-68
2023/01/05 02:58:23;;;;;;;11.32;2.78;;;;;;;11.45;47.00;101334.31;5006419;28;20060;-67
2023/01/05 03:00:56;;;;;;;8.70;2.45;;;;;;;11.43;47.06;101337.19;5001839;28;20030;-67
2023/01/05 03:03:34;;;;;;;6.65;2.60;;;;;;;11.43;46.87;101337.19;5063608;22;20035;-71
2023/01/05 03:06:06;;;;;;;9.18;2.60;;;;;;;11.41;47.58;101339.19;5044898;28;20487;-71
2023/01/05 03:08:38;;;;;;;7.50;2.30;;;;;;;11.40;47.75;101337.44;5039687;28;20037;-70
2023/01/05 03:14:01;;;;;;;8.43;2.78;;;;;;;11.38;47.05;101331.22;5036545;28;20406;-71
2023/01/05 03:16:36;;;;;;;10.13;2.65;;;;;;;11.38;47.10;101327.63;5056072;28;20103;-70
2023/01/05 03:36:15;;;;;;;8.48;2.78;;;;;;;11.30;47.79;101351.06;5037319;28;20048;-71
2023/01/05 03:38:47;;;;;;;10.45;2.35;;;;;;;11.29;47.55;101345.69;5033451;28;20088;-70
2023/01/05 03:41:17;;;;;;;7.63;2.50;;;;;;;11.27;47.94;101359.53;5064259;28;20055;-70
2023/01/05 03:43:47;;;;;;;9.23;2.40;;;;;;;11.29;47.81;101352.06;5038277;28;20483;-69
2023/01/05 03:46:20;;;;;;;6.57;2.28;;;;;;;11.29;47.55;101343.81;5042481;28;20036;-68
2023/01/05 03:48:49;;;;;;;8.10;2.60;;;;;;;11.26;47.79;101343.19;5031486;28;20037;-71
2023/01/05 03:51:20;;;;;;;9.60;2.42;;;;;;;11.29;48.35;101337.47;5030140;28;20094;-71
2023/01/05 03:53:48;;;;;;;8.18;2.45;;;;;;;11.26;47.79;101343.19;5044531;28;20052;-71
2023/01/05 03:56:17;;;;;;;9.18;2.58;;;;;;;11.25;47.81;101345.06;5043211;28;20069;-70
2023/01/05 03:58:45;;;;;;;9.43;2.55;;;;;;;11.25;47.99;101346.94;5037522;28;20045;-71
2023/01/05 04:01:13;;;;;;;9.43;2.45;;;;;;;11.25;47.75;101346.94;5045438;28;20547;-70
2023/01/05 04:03:42;;;;;;;7.55;2.20;;;;;;;11.25;48.09;101346.94;5044617;28;20131;-69
2023/01/05 04:06:11;;;;;;;10.85;2.67;;;;;;;11.25;47.95;101355.16;5047647;28;20494;-69
2023/01/05 04:08:40;;;;;;;9.85;2.38;;;;;;;11.26;48.03;101352.28;5044932;28;20161;-70
2023/01/05 04:11:18;;;;;;;9.02;2.17;;;;;;;11.27;48.43;101351.31;5034498;28;20041;-71
2023/01/05 04:13:51;;;;;;;9.98;2.53;;;;;;;11.24;48.73;101353.41;5041962;28;20049;-71
2023/01/05 04:16:19;;;;;;;9.70;2.03;;;;;;;11.23;48.22;101349.78;5044867;28;20040;-70
2023/01/05 04:18:49;;;;;;;9.48;2.25;;;;;;;11.23;48.75;101358.00;5037719;28;20033;-71
2023/01/05 04:21:19;;;;;;;8.88;2.20;;;;;;;11.23;48.86;101357.13;5039782;28;20041;-70
2023/01/05 04:23:50;;;;;;;9.30;2.40;;;;;;;11.25;48.81;101352.41;5052198;28;20103;-70
2023/01/05 04:26:19;;;;;;;7.80;2.28;;;;;;;11.20;48.91;101350.06;5065455;28;20125;-71
2023/01/05 04:28:49;;;;;;;7.00;2.65;;;;;;;11.19;48.94;101350.19;5067250;28;20048;-70
2023/01/05 04:31:20;;;;;;;10.00;2.50;;;;;;;11.19;48.72;101344.72;5041136;28;20036;-69
2023/01/05 04:33:49;;;;;;;8.40;2.80;;;;;;;11.16;49.29;101358.66;5040837;28;20114;-70
2023/01/05 04:36:20;;;;;;;7.13;2.53;;;;;;;11.15;49.15;101356.91;5045085;28;20040;-70
2023/01/05 04:38:48;;;;;;;7.82;2.55;;;;;;;11.14;49.02;101360.66;5043484;28;20047;-72
2023/01/05 04:41:18;;;;;;;7.70;2.58;;;;;;;11.13;49.29;101361.66;5046496;28;20044;-71
2023/01/05 04:43:50;;;;;;;7.97;2.05;;;;;;;11.09;48.96;101362.88;5044453;28;20048;-71
2023/01/05 04:46:18;;;;;;;5.85;2.05;;;;;;;11.08;49.11;101370.22;5062784;28;20505;-70
2023/01/05 04:48:48;;;;;;;10.73;2.80;;;;;;;11.07;49.20;101362.13;5038309;28;20497;-70
2023/01/05 04:51:19;;;;;;;10.75;2.90;;;;;;;11.06;49.31;101366.75;5046514;28;20051;-70
2023/01/05 04:53:47;;;;;;;8.27;2.53;;;;;;;11.05;49.12;101365.03;5049633;28;20075;-71
2023/01/05 04:56:19;;;;;;;9.30;2.47;;;;;;;11.06;49.54;101374.97;5042575;28;20119;-70
2023/01/05 04:58:49;;;;;;;7.38;2.30;;;;;;;11.03;49.07;101372.50;5036701;28;20522;-69
2023/01/05 05:01:17;;;;;;;11.15;2.40;;;;;;;11.03;49.14;101377.09;5047170;28;20106;-71
2023/01/05 05:03:50;;;;;;;7.75;2.60;;;;;;;10.99;49.60;101379.19;5059231;28;20051;-71
2023/01/05 05:06:20;;;;;;;8.23;2.30;;;;;;;10.99;49.31;101377.34;5043896;28;20045;-69
2023/01/05 05:08:49;;;;;;;8.20;2.78;;;;;;;10.98;49.17;101377.44;5040198;28;20052;-71
2023/01/05 05:11:18;;;;;;;7.05;2.60;;;;;;;10.97;49.89;101371.13;5038057;28;20091;-72
2023/01/05 05:13:48;;;;;;;9.10;2.22;;;;;;;10.95;49.35;101375.84;5045629;28;20068;-71
2023/01/05 05:16:16;;;;;;;10.98;2.70;;;;;;;10.94;49.51;101392.41;5048012;28;20036;-69
2023/01/05 05:18:47;;;;;;;10.07;3.45;;;;;;;10.91;49.99;101388.03;5049099;28;20417;-71
2023/01/05 05:21:22;;;;;;;7.97;2.35;;;;;;;10.89;49.80;101392.78;5049973;28;20037;-71
2023/01/05 05:23:50;;;;;;;7.70;2.40;;;;;;;10.89;49.60;101387.31;5043540;28;20043;-70
2023/01/05 05:26:19;;;;;;;8.25;3.17;;;;;;;10.90;49.84;101393.63;5057260;28;20068;-70
2023/01/05 05:28:48;;;;;;;7.45;2.80;;;;;;;10.87;50.00;101389.28;5047183;28;20131;-70
2023/01/05 05:31:15;;;;;;;6.88;2.50;;;;;;;10.85;49.82;101385.81;5039411;28;20048;-69
2023/01/05 05:33:43;;;;;;;10.00;2.53;;;;;;;10.86;49.79;101384.81;5043839;28;20060;-71
2023/01/05 05:36:11;;;;;;;7.75;2.45;;;;;;;10.86;50.08;101394.91;5049147;28;20441;-70
2023/01/05 05:38:39;;;;;;;8.13;2.75;;;;;;;10.84;49.91;101391.41;5068031;28;20120;-70
2023/01/05 05:41:07;;;;;;;7.78;2.70;;;;;;;10.84;49.89;101396.88;5049336;28;20303;-69
2023/01/05 05:43:36;;;;;;;8.52;3.22;;;;;;;10.84;50.28;101389.53;5060474;28;20040;-70
2023/01/05 05:46:04;;;;;;;9.98;2.33;;;;;;;10.85;49.87;101401.34;5063092;28;20033;-70
2023/01/05 05:48:32;;;;;;;7.05;2.55;;;;;;;10.84;50.20;101405.09;5050613;28;20041;-70
2023/01/05 05:51:00;;;;;;;11.52;2.88;;;;;;;10.83;50.46;101409.69;5045971;28;20063;-70
2023/01/05 05:53:28;;;;;;;7.95;2.42;;;;;;;10.83;50.12;101417.03;5068653;28;20036;-70
2023/01/05 05:55:56;;;;;;;7.85;2.70;;;;;;;10.83;49.91;101428.84;5045419;28;20112;-69
2023/01/05 05:58:24;;;;;;;7.95;2.78;;;;;;;10.83;50.05;101430.72;5062713;28;20097;-70
2023/01/05 06:00:57;;;;;;;7.47;2.50;;;;;;;10.86;50.40;101430.50;5062384;28;20049;-70
2023/01/05 06:03:25;;;;;;;6.30;2.28;;;;;;;10.83;50.35;101436.19;5062821;28;20044;-70
2023/01/05 06:05:53;;;;;;;11.48;3.30;;;;;;;10.83;50.55;101445.28;5040745;28;20045;-70
2023/01/05 06:08:22;;;;;;;11.35;3.17;;;;;;;10.84;50.42;101437.94;5057962;28;20052;-71
2023/01/05 06:10:50;;;;;;;10.52;2.75;;;;;;;10.84;50.29;101444.28;5067724;28;20529;-71
2023/01/05 06:13:18;;;;;;;6.75;2.72;;;;;;;10.82;50.17;101440.81;5063981;28;20389;-71
2023/01/05 06:15:46;;;;;;;9.85;3.17;;;;;;;10.80;50.47;101448.28;5057807;28;20048;-71
2023/01/05 06:18:16;;;;;;;8.02;2.58;;;;;;;10.82;50.26;101440.81;5037469;28;20051;-71
2023/01/05 06:20:44;;;;;;;7.40;2.85;;;;;;;10.80;50.31;101436.47;5046334;28;20051;-70
2023/01/05 06:23:12;;;;;;;10.13;3.28;;;;;;;10.78;50.81;101453.00;5067563;28;20064;-71
2023/01/05 06:25:40;;;;;;;10.00;2.90;;;;;;;10.79;50.46;101456.63;5063550;28;20040;-71
2023/01/05 06:28:08;;;;;;;10.40;3.22;;;;;;;10.77;50.55;101456.72;5055438;28;20131;-71
2023/01/05 06:30:36;;;;;;;9.88;3.40;;;;;;;10.78;50.24;101457.59;5056424;28;20044;-71
2023/01/05 06:33:04;;;;;;;9.55;2.88;;;;;;;10.75;50.75;101453.25;5046196;28;20052;-70
2023/01/05 06:35:33;;;;;;;8.07;2.95;;;;;;;10.76;50.36;101467.81;5043087;28;20052;-70
2023/01/05 06:38:01;;;;;;;11.25;3.17;;;;;;;10.73;50.89;101457.09;5054333;28;20041;-70
2023/01/05 06:40:29;;;;;;;7.72;3.10;;;;;;;10.72;50.38;101467.19;5051216;28;20045;-70
2023/01/05 06:42:57;;;;;;;7.93;2.78;;;;;;;10.72;50.57;101477.25;5059975;28;20119;-70
2023/01/05 06:45:24;;;;;;;10.93;3.05;;;;;;;10.70;50.98;101474.63;5041899;28;20372;-70
2023/01/05 06:47:52;;;;;;;9.32;2.92;;;;;;;10.70;50.74;101460.94;5041811;28;20131;-70
2023/01/05 06:50:20;;;;;;;7.75;2.38;;;;;;;10.70;50.59;101476.50;5054282;28;20056;-70
2023/01/05 06:52:50;;;;;;;9.95;2.88;;;;;;;10.70;50.60;101480.13;5037997;28;20519;-70
2023/01/05 06:55:18;;;;;;;9.02;2.58;;;;;;;10.69;51.02;101475.63;5053581;28;20508;-70
2023/01/05 06:57:45;;;;;;;10.57;2.63;;;;;;;10.69;50.76;101483.84;5039038;28;20394;-70
2023/01/05 07:00:15;;;;;;;10.00;2.75;;;;;;;10.70;51.00;101479.25;5062215;28;20047;-70
2023/01/05 07:02:43;;;;;;;8.27;2.50;;;;;;;10.68;50.53;101483.97;5063072;28;20089;-70
2023/01/05 07:05:11;;;;;;;7.32;2.53;;;;;;;10.68;51.11;101481.22;5059848;28;20416;-70
2023/01/05 07:07:39;;;;;;;7.10;2.53;;;;;;;10.69;51.04;101480.22;5050655;28;20120;-70
2023/01/05 07:10:09;;;;;;;8.23;2.97;;;;;;;10.70;50.52;101479.25;5039930;28;20055;-69
2023/01/05 07:12:36;;;;;;;10.13;2.95;;;;;;;10.67;50.90;101485.81;5066152;28;20522;-70
2023/01/05 07:15:05;;;;;;;9.73;2.97;;;;;;;10.69;50.89;101488.44;5059734;28;20056;-68
2023/01/05 07:17:33;;;;;;;9.65;2.97;;;;;;;10.68;50.50;101492.16;5059352;28;20048;-69
2023/01/05 07:20:01;;;;;;;9.82;3.28;;;;;;;10.69;50.74;101491.19;5041096;28;20057;-68
2023/01/05 07:22:30;;;;;;;11.82;3.25;;;;;;;10.68;50.47;101493.03;5056127;28;20493;-68
2023/01/05 07:24:58;;;;;;;10.93;3.60;;;;;;;10.67;50.64;101499.50;5058579;28;20029;-69
2023/01/05 07:27:27;;;;;;;13.63;3.67;;;;;;;10.69;50.95;101491.19;5049437;28;20071;-68
2023/01/05 07:29:55;;;;;;;8.07;2.95;;;;;;;10.67;51.02;101494.03;5055991;28;20040;-69
2023/01/05 07:32:23;;;;;;;11.45;3.25;;;;;;;10.67;50.63;101506.84;5059023;28;20055;-68
2023/01/05 07:34:51;;;;;;;9.55;3.00;;;;;;;10.66;51.10;101507.84;5054896;28;20048;-68
2023/01/05 07:37:23;;;;;;;9.73;2.90;;;;;;;10.66;50.96;101505.97;5056447;28;20254;-68
2023/01/05 07:39:51;;;;;;;10.60;3.28;;;;;;;10.65;50.94;101509.69;5063121;28;20044;-68
2023/01/05 07:42:19;;;;;;;9.73;3.03;;;;;;;10.65;50.62;101517.91;5062435;28;20036;-69
2023/01/05 07:44:51;;;;;;;10.30;3.38;;;;;;;10.67;50.57;101520.53;5042037;28;20484;-69
2023/01/05 07:47:18;;;;;;;11.52;4.10;;;;;;;10.64;50.84;101510.72;5062570;28;20044;-68
2023/01/05 07:49:46;;;;;;;10.60;3.40;;;;;;;10.64;50.72;101513.44;5044710;28;20048;-69
2023/01/05 07:52:14;;;;;;;9.77;3.65;;;;;;;10.64;51.23;101507.09;5059579;28;20048;-68
2023/01/05 07:54:42;;;;;;;11.48;3.53;;;;;;;10.64;50.92;101524.41;5061443;28;20063;-68
2023/01/05 07:57:10;;;;;;;11.00;4.38;;;;;;;10.64;50.54;101529.00;5056323;28;20454;-68
2023/01/05 07:59:38;;;;;;;10.48;3.40;;;;;;;10.63;50.51;101528.13;5042507;28;20041;-68
2023/01/05 08:02:09;;;;;;;9.30;3.65;;;;;;;10.66;51.01;101536.09;5042923;28;20040;-69
2023/01/05 08:04:37;;;;;;;7.82;2.80;;;;;;;10.64;50.63;101540.81;5047939;28;20040;-70
2023/01/05 08:07:08;;;;;;;8.70;3.40;;;;;;;10.65;50.78;101538.97;5056584;28;20118;-68
2023/01/05 08:12:22;;;;;;;9.55;3.40;;;;;;;10.64;50.85;101553.63;5047110;28;20509;-68
2023/01/05 08:14:50;;;;;;;8.15;3.33;;;;;;;10.64;50.74;101554.50;5060773;28;20098;-70
2023/01/05 08:17:19;;;;;;;10.43;3.65;;;;;;;10.66;51.04;101555.25;5055167;28;20037;-68
2023/01/05 08:19:47;;;;;;;12.25;3.85;;;;;;;10.64;51.16;101564.59;5055252;28;20116;-68
2023/01/05 08:22:15;;;;;;;9.63;3.40;;;;;;;10.64;51.06;101557.25;5052599;28;20048;-70
2023/01/05 08:24:43;;;;;;;7.22;3.35;;;;;;;10.64;50.66;101567.31;5062425;28;20093;-68
2023/01/05 08:27:11;;;;;;;10.57;3.38;;;;;;;10.65;50.68;101558.13;5054784;28;20097;-68
2023/01/05 08:29:39;;;;;;;8.32;3.22;;;;;;;10.64;50.81;101554.50;5042438;28;20131;-70
2023/01/05 08:32:07;;;;;;;11.60;3.28;;;;;;;10.66;51.19;101566.19;5044415;28;20094;-70
2023/01/05 08:34:37;;;;;;;11.65;3.53;;;;;;;10.67;51.17;101570.69;5053504;28;20569;-70
2023/01/05 08:37:04;;;;;;;11.13;3.15;;;;;;;10.67;50.67;101573.41;5055535;28;20045;-70
2023/01/05 08:39:34;;;;;;;10.48;3.83;;;;;;;10.68;50.89;101577.03;5064857;28;20040;-70
2023/01/05 08:42:02;;;;;;;9.63;3.28;;;;;;;10.68;50.59;101568.81;5059952;28;20053;-70
2023/01/05 08:44:30;;;;;;;12.27;3.42;;;;;;;10.68;50.81;101572.44;5055865;28;20135;-71
2023/01/05 08:46:58;;;;;;;10.02;3.85;;;;;;;10.69;50.58;101585.13;5062407;28;20123;-70
2023/01/05 08:49:26;;;;;;;8.30;3.03;;;;;;;10.70;50.73;101578.66;5050112;28;20041;-70
2023/01/05 08:51:55;;;;;;;12.82;3.85;;;;;;;10.73;50.58;101577.56;5063035;28;20095;-71
2023/01/05 08:54:23;;;;;;;8.93;3.20;;;;;;;10.72;50.84;101578.56;5055865;28;20055;-71
2023/01/05 08:56:51;;;;;;;9.45;3.30;;;;;;;10.73;50.96;101585.78;5046452;28;20041;-71
2023/01/05 08:59:19;;;;;;;10.73;3.72;;;;;;;10.73;50.55;101583.88;5050214;28;20033;-71
2023/01/05 09:01:47;;;;;;;12.95;3.13;;;;;;;10.75;50.76;101592.00;5037715;28;20048;-72
2023/01/05 09:04:15;;;;;;;14.82;3.47;;;;;;;10.75;50.98;101592.88;5087564;22;20151;-80
2023/01/05 09:06:43;;;;;;;12.60;3.97;;;;;;;10.75;50.78;101589.25;5040151;28;20048;-79
2023/01/05 09:09:13;;;;;;;10.63;3.70;;;;;;;10.78;50.69;101602.72;5065787;28;20048;-80
2023/01/05 09:11:40;;;;;;;12.73;3.88;;;;;;;10.76;50.98;101608.31;5054384;28;20029;-80
2023/01/05 09:14:13;;;;;;;9.95;3.17;;;;;;;10.78;51.06;101611.81;5012978;28;20045;-80
2023/01/05 09:16:41;;;;;;;7.68;3.30;;;;;;;10.75;50.75;101601.09;5006191;28;20065;-80
2023/01/05 09:19:32;;;;;;;12.82;3.70;;;;;;;10.77;50.75;101617.41;5017561;28;20041;-80
2023/01/05 09:22:00;;;;;;;12.48;4.15;;;;;;;10.78;50.41;101621.88;5032186;28;20053;-80
2023/01/05 09:24:29;;;;;;;9.73;3.28;;;;;;;10.79;50.62;101610.81;5041202;28;20064;-80
2023/01/05 09:26:57;;;;;;;12.38;3.45;;;;;;;10.80;50.85;101615.31;5041216;28;20041;-80
2023/01/05 09:29:25;;;;;;;10.85;4.10;;;;;;;10.80;50.78;101623.53;5054558;28;20048;-80
2023/01/05 09:31:53;;;;;;;11.93;3.28;;;;;;;10.80;50.70;101620.78;5049512;28;20062;-80
2023/01/05 09:34:21;;;;;;;13.52;4.20;;;;;;;10.81;50.72;101632.63;5043180;28;20573;-80
2023/01/05 09:36:49;;;;;;;13.98;3.70;;;;;;;10.81;50.64;101630.72;5036483;28;20418;-80
2023/01/05 09:39:18;;;;;;;12.05;3.83;;;;;;;10.82;50.56;101623.38;5024561;28;20041;-81
2023/01/05 09:41:52;;;;;;;10.55;3.67;;;;;;;10.84;50.98;101635.97;5029135;28;20051;-82
2023/01/05 09:44:29;;;;;;;9.20;3.20;;;;;;;10.86;51.03;101642.22;5042001;28;20351;-79
2023/01/05 09:47:03;;;;;;;11.90;3.80;;;;;;;10.85;50.49;101654.16;5035823;28;20418;-80
2023/01/05 09:49:33;;;;;;;11.73;3.70;;;;;;;10.84;50.86;101657.88;5024885;28;20041;-80
2023/01/05 09:52:07;;;;;;;11.02;3.13;;;;;;;10.86;50.82;101655.91;5034058;28;20052;-81
2023/01/05 09:54:37;;;;;;;12.25;3.97;;;;;;;10.85;50.92;101656.91;5055695;28;20569;-80
2023/01/05 09:57:19;;;;;;;9.38;3.10;;;;;;;10.87;51.05;101662.25;5037332;28;20069;-80
2023/01/05 09:59:51;;;;;;;9.63;3.50;;;;;;;10.86;50.68;101661.38;5037397;28;20124;-80
2023/01/05 10:02:26;;;;;;;11.38;3.00;;;;;;;10.89;50.62;101668.50;5037305;28;20053;-79
2023/01/05 10:04:55;;;;;;;9.15;3.33;;;;;;;10.88;50.62;101664.88;5042876;28;20040;-80
2023/01/05 10:07:34;;;;;;;10.80;3.45;;;;;;;10.93;50.58;101672.75;5038845;28;20040;-80
2023/01/05 10:10:08;;;;;;;11.00;3.35;;;;;;;10.92;50.86;101671.88;5051633;28;20072;-81
2023/01/05 10:15:32;;;;;;;;;;;;;;;10.66;51.31;101663.88;5034219;28;20051;-81
2023/01/05 10:18:11;;;;;;;7.97;3.13;;;;;;;10.91;50.75;101671.97;5048912;28;19963;-80
2023/01/05 10:20:48;;;;;;;9.65;3.10;;;;;;;10.96;50.68;101675.25;5029903;28;20083;-80
2023/01/05 10:23:30;;;;;;;10.65;3.50;;;;;;;10.97;50.57;101677.88;5052229;28;20045;-81
2023/01/05 10:26:07;;;;;;;10.68;3.67;;;;;;;10.96;50.15;101680.75;5036015;28;20057;-81
2023/01/05 10:28:42;;;;;;;11.30;3.60;;;;;;;10.99;50.62;101684.09;5038060;28;20040;-81
2023/01/05 10:31:19;;;;;;;9.63;3.33;;;;;;;10.98;50.36;101682.34;5037531;28;20091;-82
2023/01/05 10:33:51;;;;;;;14.23;4.65;;;;;;;10.99;50.66;101685.97;5041329;28;20503;-81
2023/01/05 10:36:40;;;;;;;10.77;3.85;;;;;;;11.00;50.20;101679.50;5058561;28;20059;-81
2023/01/05 10:39:42;;;;;;;12.10;3.55;;;;;;;11.01;50.04;101688.59;5038130;28;20518;-80
2023/01/05 10:42:19;;;;;;;7.85;3.13;;;;;;;11.02;50.18;101693.06;5034619;28;20049;-80
2023/01/05 10:44:54;;;;;;;10.50;3.15;;;;;;;11.02;50.61;101684.88;5040660;28;20049;-81
2023/01/05 10:47:24;;;;;;;10.15;3.58;;;;;;;11.01;50.49;101686.72;5054506;28;20041;-80
2023/01/05 10:49:52;;;;;;;11.93;3.58;;;;;;;11.00;50.64;101693.19;5047899;28;20045;-80
2023/01/05 10:52:22;;;;;;;10.20;3.42;;;;;;;11.03;50.30;101684.75;5037543;28;20033;-81
2023/01/05 10:54:55;;;;;;;11.55;3.63;;;;;;;11.04;50.71;101697.47;5033367;28;20055;-80
2023/01/05 10:57:36;;;;;;;10.98;3.33;;;;;;;11.05;49.83;101696.47;5038628;28;20084;-80
2023/01/05 11:00:16;;;;;;;7.82;3.53;;;;;;;11.05;50.28;101699.22;5037478;28;20080;-79
2023/01/05 11:02:49;;;;;;;11.60;4.90;;;;;;;11.07;50.35;101699.06;5039276;28;20049;-80
2023/01/05 11:05:26;;;;;;;12.02;3.97;;;;;;;11.08;50.04;101698.97;5034840;28;20618;-80
2023/01/05 11:07:56;;;;;;;10.10;3.78;;;;;;;11.07;50.02;101708.16;5040679;28;20049;-79
2023/01/05 11:10:29;;;;;;;10.05;3.10;;;;;;;11.09;50.32;101702.56;5039386;28;20079;-79
2023/01/05 11:13:08;;;;;;;8.25;3.28;;;;;;;11.09;49.67;101691.63;5058578;28;20037;-80
2023/01/05 11:15:47;;;;;;;11.93;3.78;;;;;;;11.11;50.03;101700.59;5051152;28;20152;-79
2023/01/05 11:18:26;;;;;;;11.75;3.50;;;;;;;11.11;50.18;101698.72;5033824;28;20562;-79
2023/01/05 11:21:09;;;;;;;12.65;3.70;;;;;;;11.11;49.75;101693.25;5025778;28;20049;-79
2023/01/05 11:23:39;;;;;;;9.18;4.03;;;;;;;11.12;50.00;101702.34;5047371;28;20475;-80
2023/01/05 11:26:27;;;;;;;10.50;3.78;;;;;;;11.13;49.81;101704.97;5039799;28;20495;-79
2023/01/05 11:29:01;;;;;;;11.73;3.95;;;;;;;11.15;49.90;101699.34;5028493;28;20496;-78
2023/01/05 11:31:41;;;;;;;10.07;3.70;;;;;;;11.18;49.68;101704.59;5033708;28;20041;-80
2023/01/05 11:34:25;;;;;;;9.13;3.70;;;;;;;11.18;50.00;101697.28;5042015;28;20095;-80
2023/01/05 11:36:55;;;;;;;8.07;3.35;;;;;;;11.19;50.35;101703.63;5034486;28;20045;-79
2023/01/05 11:39:29;;;;;;;11.27;4.07;;;;;;;11.21;49.90;101694.31;5029948;28;20045;-79
2023/01/05 11:42:32;;;;;;;9.73;3.50;;;;;;;11.18;50.06;101696.38;5032483;28;20041;-78
2023/01/05 11:45:02;;;;;;;10.25;3.92;;;;;;;11.20;50.12;101703.50;4986494;28;20115;-79
2023/01/05 11:47:39;;;;;;;11.77;4.53;;;;;;;11.25;49.96;101697.66;5039210;28;20037;-81
2023/01/05 11:50:20;;;;;;;11.88;4.55;;;;;;;11.26;49.53;101703.03;5030711;28;20065;-79
2023/01/05 11:52:50;;;;;;;10.48;3.85;;;;;;;11.27;50.08;101706.66;5037675;28;20563;-80
2023/01/05 11:55:32;;;;;;;11.05;4.00;;;;;;;11.31;49.76;101708.13;5033528;28;20120;-79
2023/01/05 11:58:20;;;;;;;12.07;3.87;;;;;;;11.29;49.80;101701.94;5030767;28;20419;-80
2023/01/05 12:01:11;;;;;;;9.15;3.65;;;;;;;11.31;48.99;101705.41;5026717;28;20059;-78
2023/01/05 12:03:57;;;;;;;8.60;3.38;;;;;;;11.35;49.12;101696.84;5035108;28;20454;-82
2023/01/05 12:06:39;;;;;;;10.10;3.50;;;;;;;11.36;49.46;101693.09;5035080;28;20048;-78
2023/01/05 12:09:15;;;;;;;10.35;3.38;;;;;;;11.39;49.23;101694.72;5050990;28;20067;-78
2023/01/05 12:11:50;;;;;;;10.13;3.20;;;;;;;11.39;49.40;101693.88;5033837;28;20531;-79
2023/01/05 12:14:31;;;;;;;9.73;3.88;;;;;;;11.43;49.04;101700.84;5048924;28;20048;-78
2023/01/05 12:17:08;;;;;;;8.98;3.13;;;;;;;11.42;49.08;101693.63;5036819;28;20137;-78
2023/01/05 12:19:54;;;;;;;12.73;3.90;;;;;;;11.44;48.71;101697.13;5040684;28;20733;-80